• Join FlightAware (Why Join?)
  • Login
  • US Flag 
02:05AM EDT


 

Airport Tracker/Info


-or-


 

Live Flight TrackerFlight Track Log ✈ SKW4442 ✈ 04-May-2012 ✈ KDTW - KBNA

Flight Track Log - Related Links

Times and Time Zones

All times are in EDT time to prevent confusion due to time zone crossing. See the SKW4442 flight status page for this flight to view local times or setup timezone preferences in your user account.

Time Position Orientation Groundspeed Altitude Reporting Facility
EDT Latitude Longitude Course Direction KTS MPH feet Rate Location/Type
09:13AM 42.2017 -83.3553 190° South 157 181 1,400  Level Cleveland Center
09:14AM 42.1408 -83.3694 188° South 226 260 3,800 2,160 Climbing Cleveland Center
09:15AM 42.0467 -83.3878 196° South 296 341 6,800 2,460 Climbing Cleveland Center
09:16AM 41.9667 -83.4178 203° Southwest 288 331 9,600 2,280 Climbing Cleveland Center
09:17AM 41.9031 -83.4542 200° South 288 331 11,400 2,100 Climbing Cleveland Center
09:18AM 41.8103 -83.5000 201° Southwest 304 350 13,900 2,220 Climbing Cleveland Center
09:19AM 41.7258 -83.5436 197° South 315 362 15,900 1,860 Climbing Cleveland Center
09:20AM 41.6414 -83.5786 193° South 315 362 17,700 1,560 Climbing Cleveland Center
09:21AM 41.5511 -83.6075 193° South 329 379 19,100 1,260 Climbing Cleveland Center
09:22AM 41.4544 -83.6364 207° Southwest 343 395 20,300 1,020 Climbing Cleveland Center
09:23AM 41.3653 -83.6958 207° Southwest 357 411 21,200 1,140 Climbing Cleveland Center
09:24AM 41.2739 -83.7578 208° Southwest 363 418 22,600 1,200 Climbing Cleveland Center
09:25AM 41.1781 -83.8247 210° Southwest 384 442 23,600 960 Climbing Cleveland Center
09:27AM 41.0403 -83.9283 208° Southwest 377 434 25,100 840 Climbing Indianapolis Center
09:28AM 40.9378 -83.9992 207° Southwest 386 444 25,800 720 Climbing Indianapolis Center
09:29AM 40.8375 -84.0672 208° Southwest 394 453 26,600 600 Climbing Indianapolis Center
09:30AM 40.7394 -84.1350 208° Southwest 399 459 27,100 600 Climbing Indianapolis Center
09:31AM 40.6389 -84.2053 208° Southwest 405 466 27,800 540 Climbing Indianapolis Center
09:32AM 40.5386 -84.2753 209° Southwest 410 472 28,200 480 Climbing Indianapolis Center
09:33AM 40.4381 -84.3478 210° Southwest 415 478 28,800 540 Climbing Indianapolis Center
09:34AM 40.3356 -84.4256 209° Southwest 420 483 29,300 480 Climbing Indianapolis Center
09:35AM 40.2347 -84.4978 204° Southwest 420 483 29,800 300 Climbing Indianapolis Center
09:36AM 40.1258 -84.5614 201° Southwest 432 497 30,000 60 Climbing Indianapolis Center
09:37AM 40.0169 -84.6169 202° Southwest 432 497 30,000  Level Indianapolis Center
09:38AM 39.9061 -84.6747 202° Southwest 424 488 30,000  Level Indianapolis Center
09:39AM 39.7992 -84.7297 202° Southwest 424 488 30,000  Level Indianapolis Center
09:40AM 39.6922 -84.7847 201° Southwest 419 482 30,000  Level Indianapolis Center
09:41AM 39.5833 -84.8394 200° South 414 476 30,000  Level Indianapolis Center
09:42AM 39.4764 -84.8911 202° Southwest 414 476 30,000  Level Indianapolis Center
09:43AM 39.3714 -84.9456 202° Southwest 420 483 30,000  Level Indianapolis Center
09:44AM 39.2603 -85.0025 201° Southwest 420 483 30,000  Level Indianapolis Center
09:45AM 39.1492 -85.0564 202° Southwest 420 483 30,000  Level Indianapolis Center
09:46AM 39.0419 -85.1131 201° Southwest 415 478 30,000  Level Indianapolis Center
09:47AM 38.9350 -85.1669 201° Southwest 420 483 30,000  Level Indianapolis Center
09:48AM 38.8236 -85.2231 200° South 420 483 30,000  Level Indianapolis Center
09:49AM 38.7083 -85.2761 202° Southwest 420 483 30,000  Level Indianapolis Center
09:50AM 38.6053 -85.3294 201° Southwest 426 490 30,000  Level Indianapolis Center
09:51AM 38.4958 -85.3825 200° South 421 484 30,000 -300 Level Indianapolis Center
09:52AM 38.3825 -85.4356 202° Southwest 421 484 29,500 -780 Descending Indianapolis Center
09:53AM 38.2711 -85.4933 202° Southwest 426 490 28,500 -1,020 Descending Indianapolis Center
09:54AM 38.1511 -85.5536 192° South 438 504 27,500 -1,020 Descending Indianapolis Center
09:55AM 38.0275 -85.5872 186° South 449 517 26,500 -1,020 Descending Indianapolis Center
09:56AM 37.9042 -85.6047 186° South 454 522 25,500 -1,020 Descending Indianapolis Center
09:57AM 37.7786 -85.6225 187° South 459 528 24,500 -1,320 Descending Indianapolis Center
09:59AM 37.5469 -85.6594 186° South 441 507 21,700 -1,560 Descending Memphis Center
10:00AM 37.4331 -85.6742 186° South 430 495 20,000 -900 Descending Memphis Center
10:01AM 37.3189 -85.6886 193° South 418 481 20,000 -480 Level Memphis Center
10:02AM 37.2078 -85.7211 196° South 418 481 19,100 -1,200 Descending Memphis Center
10:03AM 37.0947 -85.7617 195° South 424 488 17,700 -1,440 Descending Memphis Center
10:04AM 36.9856 -85.7992 197° South 417 480 16,300 -1,200 Descending Memphis Center
10:05AM 36.8953 -85.8328 195° South 406 467 15,300 -1,080 Descending Memphis Center
10:06AM 36.7861 -85.8700 196° South 406 467 14,200 -1,140 Descending Memphis Center
10:07AM 36.6811 -85.9069 195° South 396 456 13,100 -1,140 Descending Memphis Center
10:08AM 36.5803 -85.9408 200° South 389 448 12,000 -1,020 Descending Memphis Center
10:09AM 36.4839 -85.9850 240° Southwest 378 435 11,100 -480 Descending Memphis Center
10:10AM 36.4392 -86.0828 249° West 315 362 11,100 -600 Level Memphis Center
10:11AM 36.4092 -86.1797 246° West 300 345 10,000 -1,380 Descending Memphis Center
10:12AM 36.3769 -86.2717 248° West 300 345 8,400 -1,560 Descending Memphis Center
10:13AM 36.3483 -86.3581 247° West 290 334 6,900 -1,500 Descending Memphis Center
10:14AM 36.3197 -86.4419 247° West 277 319 5,400 -1,500 Descending Memphis Center
10:15AM 36.2911 -86.5256 249° West 277 319 3,900 -1,380 Descending Memphis Center
10:16AM 36.2664 -86.6039 219° Southwest 263 303 2,700 -900 Descending Memphis Center
10:17AM 36.2239 -86.6472 197° South 240 276 2,100 -540 Descending Memphis Center
10:18AM 36.1786 -86.6647 194° South 193 222 1,700 -660 Descending Memphis Center
10:19AM 36.1394 -86.6767 207° Southwest 159 183 800 4,620 Descending Memphis Center
10:20AM 36.0944 -86.7044 204° Southwest 159 183 11,000 5,100 Climbing Memphis Center
10:21AM 36.0533 -86.7267 204° Southwest 159 183 11,000  Level Memphis Center